createdAt,value
2022-11-30T00:00:53.637Z,4.59
2022-11-30T00:01:56.013Z,4.58
2022-11-30T00:02:59.639Z,4.59
2022-11-30T00:04:01.900Z,4.59
2022-11-30T00:05:05.432Z,4.58
2022-11-30T00:06:08.939Z,4.57
2022-11-30T00:07:12.003Z,4.57
2022-11-30T00:08:15.720Z,4.56
2022-11-30T00:09:18.821Z,4.57
2022-11-30T00:10:21.477Z,4.57
2022-11-30T00:11:26.472Z,4.56
2022-11-30T00:12:28.915Z,4.56
2022-11-30T00:13:32.051Z,4.58
2022-11-30T00:14:34.181Z,4.56
2022-11-30T00:15:37.785Z,4.57
2022-11-30T00:16:39.934Z,4.57
2022-11-30T00:17:43.143Z,4.57
2022-11-30T00:18:46.447Z,4.58
2022-11-30T00:19:48.636Z,4.58
2022-11-30T00:20:51.839Z,4.58
2022-11-30T00:21:55.333Z,4.57
2022-11-30T00:22:58.834Z,4.59
2022-11-30T00:24:02.366Z,4.44
2022-11-30T00:25:06.236Z,4.60
2022-11-30T00:26:10.693Z,4.60
2022-11-30T00:27:13.844Z,4.59
2022-11-30T00:28:15.962Z,4.61
2022-11-30T00:29:19.245Z,4.60
2022-11-30T00:30:21.342Z,4.61
2022-11-30T00:31:25.028Z,4.63
2022-11-30T00:32:29.229Z,4.64
2022-11-30T00:33:33.277Z,4.63
2022-11-30T00:34:36.388Z,4.65
2022-11-30T00:35:38.441Z,4.63
2022-11-30T00:36:41.646Z,4.59
2022-11-30T00:37:44.267Z,4.62
2022-11-30T00:38:48.100Z,4.62
2022-11-30T00:39:51.591Z,4.57
2022-11-30T00:40:54.818Z,4.64
2022-11-30T00:41:56.944Z,4.66
2022-11-30T00:43:00.156Z,4.66
2022-11-30T00:44:02.237Z,4.68
2022-11-30T00:45:15.173Z,4.64
2022-11-30T00:46:17.588Z,4.69
2022-11-30T00:47:20.908Z,4.70
2022-11-30T00:48:23.600Z,4.60
2022-11-30T00:49:27.029Z,4.70
2022-11-30T00:50:30.199Z,4.73
2022-11-30T00:51:33.590Z,4.72
2022-11-30T00:52:36.211Z,4.73
2022-11-30T00:53:40.600Z,4.72
2022-11-30T00:54:42.945Z,4.73
2022-11-30T00:55:48.291Z,4.40
2022-11-30T00:56:50.730Z,4.71
2022-11-30T00:57:54.267Z,4.70
2022-11-30T00:58:56.708Z,4.70
2022-11-30T01:00:00.207Z,4.51
2022-11-30T01:01:02.845Z,4.69
2022-11-30T01:02:06.351Z,4.67
2022-11-30T01:03:09.860Z,4.67
2022-11-30T01:04:13.491Z,4.63
2022-11-30T01:05:15.953Z,4.62
2022-11-30T01:06:19.567Z,4.65
2022-11-30T01:07:22.138Z,4.63
2022-11-30T01:08:26.636Z,4.62
2022-11-30T01:09:29.381Z,4.61
2022-11-30T01:10:34.335Z,4.57
2022-11-30T01:11:38.042Z,4.62
2022-11-30T01:12:41.725Z,4.61
2022-11-30T01:13:44.240Z,4.59
2022-11-30T01:14:48.045Z,4.60
2022-11-30T01:15:50.786Z,4.59
2022-11-30T01:16:56.356Z,4.54
2022-11-30T01:18:01.282Z,4.59
2022-11-30T01:19:04.181Z,4.56
2022-11-30T01:20:09.233Z,4.55
2022-11-30T01:21:14.050Z,4.58
2022-11-30T01:22:17.683Z,4.55
2022-11-30T01:23:20.389Z,4.58
2022-11-30T01:24:23.902Z,4.53
2022-11-30T01:25:26.485Z,4.57
2022-11-30T01:26:30.075Z,4.57
2022-11-30T01:27:34.035Z,4.55
2022-11-30T01:28:38.143Z,4.55
2022-11-30T01:29:40.925Z,4.52
2022-11-30T01:30:44.618Z,4.54
2022-11-30T01:31:47.210Z,4.54
2022-11-30T01:32:50.777Z,4.54
2022-11-30T01:33:55.106Z,4.52
2022-11-30T01:34:58.659Z,4.53
2022-11-30T01:36:03.051Z,4.53
2022-11-30T01:37:07.038Z,4.52
2022-11-30T01:38:09.954Z,4.52
2022-11-30T01:39:13.537Z,4.52
2022-11-30T01:40:16.012Z,4.52
2022-11-30T01:41:23.173Z,4.53
2022-11-30T01:42:26.029Z,4.47
2022-11-30T01:43:42.320Z,4.51
2022-11-30T01:44:53.934Z,4.52
2022-11-30T01:45:57.638Z,4.53
2022-11-30T01:47:04.023Z,4.52
2022-11-30T01:48:10.586Z,4.54
2022-11-30T01:49:18.141Z,4.55
2022-11-30T01:50:25.102Z,4.56
2022-11-30T01:51:31.930Z,4.57
2022-11-30T01:52:38.094Z,4.58
2022-11-30T01:53:40.453Z,4.59
2022-11-30T01:54:47.972Z,4.58
2022-11-30T01:55:50.604Z,4.57
2022-11-30T01:56:57.402Z,4.56
2022-11-30T01:58:05.044Z,4.56
2022-11-30T01:59:09.297Z,4.56
2022-11-30T02:00:14.948Z,4.51
2022-11-30T02:01:17.216Z,4.55
2022-11-30T02:02:24.075Z,4.55
2022-11-30T02:03:33.520Z,4.55
2022-11-30T02:04:39.233Z,4.55
2022-11-30T02:05:42.111Z,4.54
2022-11-30T02:06:45.817Z,4.55
2022-11-30T02:07:48.266Z,4.55
2022-11-30T02:08:52.218Z,4.56
2022-11-30T02:09:54.358Z,4.56
2022-11-30T02:11:01.294Z,4.52
2022-11-30T02:12:05.767Z,4.56
2022-11-30T02:13:34.955Z,4.55
2022-11-30T02:14:44.192Z,4.54
2022-11-30T02:15:58.933Z,4.53
2022-11-30T02:17:10.828Z,4.53
2022-11-30T02:18:17.491Z,4.52
2022-11-30T02:20:03.675Z,4.50
2022-11-30T02:21:14.590Z,4.49
2022-11-30T02:22:29.384Z,4.49
2022-11-30T02:24:07.369Z,4.49
2022-11-30T02:25:18.564Z,4.48
2022-11-30T02:26:40.896Z,4.48
2022-11-30T02:28:01.200Z,4.48
2022-11-30T02:29:14.085Z,4.48
2022-11-30T02:30:18.929Z,4.49
2022-11-30T02:31:28.408Z,4.50
2022-11-30T02:32:36.211Z,4.51
2022-11-30T02:33:42.223Z,4.49
2022-11-30T02:34:47.417Z,4.53
2022-11-30T02:35:55.556Z,4.54
2022-11-30T02:36:59.684Z,4.54
2022-11-30T02:38:04.919Z,4.53
2022-11-30T02:39:09.725Z,4.54
2022-11-30T02:40:16.967Z,4.55
2022-11-30T02:41:19.147Z,4.54
2022-11-30T02:42:22.354Z,4.52
2022-11-30T02:43:26.955Z,4.55
2022-11-30T02:44:31.633Z,4.55
2022-11-30T02:45:42.023Z,4.54
2022-11-30T02:46:55.699Z,4.55
2022-11-30T02:48:02.775Z,4.56
2022-11-30T02:49:12.349Z,4.56
2022-11-30T02:50:18.158Z,4.55
2022-11-30T02:51:25.921Z,4.51
2022-11-30T02:52:30.511Z,4.55
2022-11-30T02:53:33.733Z,4.55
2022-11-30T02:54:35.969Z,4.54
2022-11-30T02:55:39.158Z,4.55
2022-11-30T02:56:41.342Z,4.52
2022-11-30T02:57:44.583Z,4.54
2022-11-30T02:58:46.960Z,4.54
2022-11-30T02:59:51.643Z,4.53
2022-11-30T03:00:53.766Z,4.54
2022-11-30T03:01:57.537Z,4.54
2022-11-30T03:02:59.947Z,4.54
2022-11-30T03:04:03.247Z,4.55
2022-11-30T03:05:06.121Z,4.56
2022-11-30T03:06:09.401Z,4.56
2022-11-30T03:07:11.533Z,4.57
2022-11-30T03:08:14.728Z,4.57
2022-11-30T03:09:16.985Z,4.57
2022-11-30T03:10:20.152Z,4.55
2022-11-30T03:11:22.264Z,4.58
2022-11-30T03:12:25.520Z,4.59
2022-11-30T03:13:27.710Z,4.59
2022-11-30T03:14:30.825Z,4.60
2022-11-30T03:15:35.180Z,4.62
2022-11-30T03:16:38.446Z,4.63
2022-11-30T03:17:40.693Z,4.63
2022-11-30T03:18:44.329Z,4.62
2022-11-30T03:19:46.641Z,4.63
2022-11-30T03:20:49.752Z,4.62
2022-11-30T03:21:52.075Z,4.57
2022-11-30T03:22:55.369Z,4.62
2022-11-30T03:23:57.564Z,4.61
2022-11-30T03:25:00.711Z,4.59
2022-11-30T03:26:04.079Z,4.60
2022-11-30T03:27:07.301Z,4.58
2022-11-30T03:28:09.479Z,4.59
2022-11-30T03:29:12.701Z,4.59
2022-11-30T03:30:15.117Z,4.59
2022-11-30T03:31:19.788Z,4.59
2022-11-30T03:32:22.046Z,4.58
2022-11-30T03:33:25.491Z,4.57
2022-11-30T03:34:28.624Z,4.57
2022-11-30T03:35:31.758Z,4.57
2022-11-30T03:36:34.004Z,4.56
2022-11-30T03:37:37.445Z,4.55
2022-11-30T03:38:40.274Z,4.55
2022-11-30T03:39:43.473Z,4.57
2022-11-30T03:40:45.627Z,4.57
2022-11-30T03:41:48.849Z,4.57
2022-11-30T03:42:51.000Z,4.57
2022-11-30T03:43:54.382Z,4.58
2022-11-30T03:44:56.544Z,4.58
2022-11-30T03:46:00.030Z,4.58
2022-11-30T03:47:04.691Z,4.58
2022-11-30T03:48:07.216Z,4.58
2022-11-30T03:49:10.486Z,4.53
2022-11-30T03:50:12.762Z,4.58
2022-11-30T03:51:16.264Z,4.57
2022-11-30T03:52:18.512Z,4.57
2022-11-30T03:53:23.934Z,4.56
2022-11-30T03:54:26.086Z,4.55
2022-11-30T03:55:29.250Z,4.56
2022-11-30T03:56:31.526Z,4.56
2022-11-30T03:57:34.716Z,4.56
2022-11-30T03:58:37.275Z,4.57
2022-11-30T03:59:40.431Z,4.57
2022-11-30T04:00:42.652Z,4.58
2022-11-30T04:01:45.829Z,4.59
2022-11-30T04:02:49.475Z,4.59
2022-11-30T04:03:53.332Z,4.59
2022-11-30T04:04:55.472Z,4.59
2022-11-30T04:05:59.135Z,4.58
2022-11-30T04:07:01.322Z,4.58
2022-11-30T04:08:04.860Z,4.58
2022-11-30T04:09:07.036Z,4.58
2022-11-30T04:10:11.650Z,4.58
2022-11-30T04:11:14.225Z,4.57
2022-11-30T04:12:17.445Z,4.57
2022-11-30T04:13:19.670Z,4.57
2022-11-30T04:14:22.788Z,4.57
2022-11-30T04:15:24.933Z,4.57
2022-11-30T04:16:28.157Z,4.58
2022-11-30T04:17:30.384Z,4.58
2022-11-30T04:18:36.522Z,4.57
2022-11-30T04:19:38.690Z,4.58
2022-11-30T04:20:41.994Z,4.58
2022-11-30T04:21:45.147Z,4.58
2022-11-30T04:22:47.372Z,4.57
2022-11-30T04:23:50.527Z,4.57
2022-11-30T04:24:52.710Z,4.56
2022-11-30T04:25:55.922Z,4.58
2022-11-30T04:26:58.081Z,4.58
2022-11-30T04:28:01.260Z,4.58
2022-11-30T04:29:04.759Z,4.58
2022-11-30T04:30:09.477Z,4.59
2022-11-30T04:31:12.280Z,4.54
2022-11-30T04:32:15.495Z,4.59
2022-11-30T04:33:17.635Z,4.60
2022-11-30T04:34:22.164Z,4.61
2022-11-30T04:35:24.356Z,4.60
2022-11-30T04:36:27.525Z,4.59
2022-11-30T04:37:29.721Z,4.60
2022-11-30T04:38:33.307Z,4.61
2022-11-30T04:39:35.738Z,4.62
2022-11-30T04:40:40.955Z,4.53
2022-11-30T04:41:43.111Z,4.60
2022-11-30T04:42:46.447Z,4.62
2022-11-30T04:43:48.624Z,4.60
2022-11-30T04:44:51.832Z,4.58
2022-11-30T04:45:53.974Z,4.60
2022-11-30T04:46:57.247Z,4.59
2022-11-30T04:47:59.496Z,4.58
2022-11-30T04:49:03.104Z,4.57
2022-11-30T04:50:08.280Z,4.58
2022-11-30T04:51:11.712Z,4.57
2022-11-30T04:52:13.894Z,4.57
2022-11-30T04:53:17.256Z,4.58
2022-11-30T04:54:19.537Z,4.59
2022-11-30T04:55:22.901Z,4.60
2022-11-30T04:56:25.019Z,4.59
2022-11-30T04:57:28.320Z,4.55
2022-11-30T04:58:30.466Z,4.60
2022-11-30T04:59:33.782Z,4.61
2022-11-30T05:00:36.251Z,4.62
2022-11-30T05:01:39.410Z,4.62
2022-11-30T05:02:41.931Z,4.60
2022-11-30T05:03:45.034Z,4.65
2022-11-30T05:04:47.494Z,4.64
2022-11-30T05:05:52.293Z,4.66
2022-11-30T05:06:54.567Z,4.65
2022-11-30T05:07:59.526Z,4.66
2022-11-30T05:09:01.719Z,4.65
2022-11-30T05:10:05.850Z,4.64
2022-11-30T05:11:07.957Z,4.62
2022-11-30T05:12:11.138Z,4.62
2022-11-30T05:13:13.269Z,4.60
2022-11-30T05:14:16.632Z,4.60
2022-11-30T05:15:19.252Z,4.61
2022-11-30T05:16:22.416Z,4.62
2022-11-30T05:17:24.751Z,4.63
2022-11-30T05:18:29.386Z,4.63
2022-11-30T05:19:31.594Z,4.62
2022-11-30T05:20:34.771Z,4.59
2022-11-30T05:21:41.317Z,4.60
2022-11-30T05:22:50.013Z,4.62
2022-11-30T05:23:52.390Z,4.63
2022-11-30T05:24:55.553Z,4.63
2022-11-30T05:25:57.788Z,4.63
2022-11-30T05:27:01.232Z,4.64
2022-11-30T05:28:03.419Z,4.64
2022-11-30T05:29:07.468Z,4.63
2022-11-30T05:30:11.223Z,4.62
2022-11-30T05:31:14.566Z,4.62
2022-11-30T05:32:16.761Z,4.62
2022-11-30T05:33:19.982Z,4.58
2022-11-30T05:34:22.147Z,4.60
2022-11-30T05:35:25.326Z,4.60
2022-11-30T05:36:27.515Z,4.60
2022-11-30T05:37:32.083Z,4.51
2022-11-30T05:38:34.314Z,4.58
2022-11-30T05:39:37.498Z,4.57
2022-11-30T05:40:39.641Z,4.57
2022-11-30T05:41:43.141Z,4.57
2022-11-30T05:42:45.252Z,4.57
2022-11-30T05:43:48.478Z,4.56
2022-11-30T05:44:50.848Z,4.57
2022-11-30T05:45:54.325Z,4.57
2022-11-30T05:46:56.635Z,4.56
2022-11-30T05:47:59.881Z,4.56
2022-11-30T05:49:02.092Z,4.57
2022-11-30T05:50:06.296Z,4.57
2022-11-30T05:51:10.365Z,4.57
2022-11-30T05:52:13.681Z,4.56
2022-11-30T05:53:17.314Z,4.56
2022-11-30T05:54:20.628Z,4.56
2022-11-30T05:55:22.844Z,4.56
2022-11-30T05:56:26.447Z,4.46
2022-11-30T05:57:28.616Z,4.56
2022-11-30T05:58:31.908Z,4.56
2022-11-30T05:59:34.555Z,4.55
2022-11-30T06:00:37.939Z,4.55
2022-11-30T06:01:41.180Z,4.55
2022-11-30T06:02:43.577Z,4.55
2022-11-30T06:03:46.923Z,4.56
2022-11-30T06:04:49.275Z,4.57
2022-11-30T06:05:53.089Z,4.58
2022-11-30T06:06:55.874Z,4.58
2022-11-30T06:08:00.732Z,4.58
2022-11-30T06:09:04.573Z,4.60
2022-11-30T06:10:10.062Z,4.59
2022-11-30T06:11:12.530Z,4.60
2022-11-30T06:12:15.652Z,4.60
2022-11-30T06:13:18.070Z,4.61
2022-11-30T06:14:21.292Z,4.60
2022-11-30T06:15:23.448Z,4.61
2022-11-30T06:16:26.645Z,4.61
2022-11-30T06:17:28.811Z,4.62
2022-11-30T06:18:32.259Z,4.61
2022-11-30T06:19:34.475Z,4.60
2022-11-30T06:20:37.700Z,4.60
2022-11-30T06:21:39.935Z,4.59
2022-11-30T06:22:46.656Z,4.60
2022-11-30T06:23:48.762Z,4.59
2022-11-30T06:24:53.327Z,4.55
2022-11-30T06:25:55.482Z,4.60
2022-11-30T06:26:58.689Z,4.61
2022-11-30T06:28:00.831Z,4.60
2022-11-30T06:29:03.980Z,4.62
2022-11-30T06:30:07.435Z,4.62
2022-11-30T06:31:11.399Z,4.63
2022-11-30T06:32:13.742Z,4.64
2022-11-30T06:33:16.911Z,4.63
2022-11-30T06:34:19.167Z,4.63
2022-11-30T06:35:22.317Z,4.58
2022-11-30T06:36:24.600Z,4.61
2022-11-30T06:37:27.743Z,4.64
2022-11-30T06:38:30.315Z,4.64
2022-11-30T06:40:04.309Z,4.64
2022-11-30T06:41:04.620Z,4.65
2022-11-30T06:42:06.875Z,4.66
2022-11-30T06:43:10.066Z,4.67
2022-11-30T06:44:12.282Z,4.68
2022-11-30T06:45:15.783Z,4.70
2022-11-30T06:46:18.148Z,4.71
2022-11-30T06:47:21.385Z,4.72
2022-11-30T06:48:23.599Z,4.70
2022-11-30T06:49:26.812Z,4.71
2022-11-30T06:50:28.995Z,4.70
2022-11-30T06:51:32.146Z,4.69
2022-11-30T06:52:35.084Z,4.68
2022-11-30T06:53:43.491Z,4.68
2022-11-30T06:54:46.706Z,4.69
2022-11-30T06:55:50.166Z,4.64
2022-11-30T06:56:54.719Z,4.66
2022-11-30T06:57:56.842Z,4.64
2022-11-30T06:59:00.032Z,4.64
2022-11-30T07:00:04.189Z,4.63
2022-11-30T07:01:08.582Z,4.62
2022-11-30T07:02:17.510Z,4.63
2022-11-30T07:03:21.516Z,4.63
2022-11-30T07:04:23.680Z,4.63
2022-11-30T07:05:27.032Z,4.60
2022-11-30T07:06:30.176Z,4.61
2022-11-30T07:07:32.520Z,4.60
2022-11-30T07:08:35.812Z,4.60
2022-11-30T07:09:38.983Z,4.60
2022-11-30T07:10:41.445Z,4.59
2022-11-30T07:11:44.580Z,4.59
2022-11-30T07:12:48.074Z,4.59
2022-11-30T07:13:51.261Z,4.58
2022-11-30T07:14:55.568Z,4.59
2022-11-30T07:15:59.056Z,4.58
2022-11-30T07:17:04.677Z,4.58
2022-11-30T07:18:08.234Z,4.59
2022-11-30T07:19:11.429Z,4.58
2022-11-30T07:20:13.889Z,4.58
2022-11-30T07:21:17.044Z,4.58
2022-11-30T07:22:19.238Z,4.59
2022-11-30T07:23:39.755Z,4.58
2022-11-30T07:25:14.972Z,4.58
2022-11-30T07:26:18.337Z,4.59
2022-11-30T07:27:21.658Z,4.58
2022-11-30T07:28:25.210Z,4.58
2022-11-30T07:29:28.466Z,4.58
2022-11-30T07:30:31.680Z,4.57
2022-11-30T07:31:35.622Z,4.58
2022-11-30T07:32:37.773Z,4.60
2022-11-30T07:33:40.908Z,4.60
2022-11-30T07:34:44.370Z,4.59
2022-11-30T07:35:47.020Z,4.60
2022-11-30T07:36:50.188Z,4.59
2022-11-30T07:37:52.396Z,4.59
2022-11-30T07:38:55.743Z,4.59
2022-11-30T07:39:57.885Z,4.58
2022-11-30T07:41:01.058Z,4.58
2022-11-30T07:42:04.415Z,4.59
2022-11-30T07:43:07.291Z,4.59
2022-11-30T07:44:12.615Z,4.60
2022-11-30T07:45:14.951Z,4.60
2022-11-30T07:46:19.185Z,4.61
2022-11-30T07:47:22.445Z,4.62
2022-11-30T07:48:24.769Z,4.60
2022-11-30T07:49:28.007Z,4.63
2022-11-30T07:50:30.118Z,4.63
2022-11-30T07:51:33.705Z,4.63
2022-11-30T07:52:36.898Z,4.64
2022-11-30T07:53:39.101Z,4.65
2022-11-30T07:54:42.324Z,4.65
2022-11-30T07:55:44.757Z,4.64
2022-11-30T07:56:47.912Z,4.62
2022-11-30T07:57:50.315Z,4.62
2022-11-30T07:58:57.834Z,4.62
2022-11-30T08:00:01.376Z,4.62
2022-11-30T08:01:05.804Z,4.62
2022-11-30T08:02:12.042Z,4.63
2022-11-30T08:03:14.290Z,4.64
2022-11-30T08:04:17.536Z,4.65
2022-11-30T08:05:20.754Z,4.62
2022-11-30T08:06:33.512Z,4.67
2022-11-30T08:07:41.381Z,4.68
2022-11-30T08:08:46.446Z,4.67
2022-11-30T08:09:49.155Z,4.68
2022-11-30T08:10:52.449Z,4.69
2022-11-30T08:11:54.580Z,4.70
2022-11-30T08:12:58.329Z,4.68
2022-11-30T08:14:01.841Z,4.68
2022-11-30T08:15:19.834Z,4.67
2022-11-30T08:16:26.087Z,4.67
2022-11-30T08:17:28.311Z,4.65
2022-11-30T08:18:31.698Z,4.65
2022-11-30T08:19:35.114Z,4.63
2022-11-30T08:20:38.288Z,4.63
2022-11-30T08:21:40.533Z,4.63
2022-11-30T08:22:43.920Z,4.60
2022-11-30T08:23:49.007Z,4.62
2022-11-30T08:24:52.318Z,4.63
2022-11-30T08:25:54.522Z,4.64
2022-11-30T08:26:57.692Z,4.64
2022-11-30T08:28:00.129Z,4.65
2022-11-30T08:29:03.914Z,4.64
2022-11-30T08:30:09.794Z,4.67
2022-11-30T08:31:15.597Z,4.67
2022-11-30T08:32:18.122Z,4.67
2022-11-30T08:33:21.744Z,4.67
2022-11-30T08:34:26.627Z,4.69
2022-11-30T08:35:28.880Z,4.70
2022-11-30T08:36:32.894Z,4.72
2022-11-30T08:37:38.054Z,4.72
2022-11-30T08:38:42.153Z,4.73
2022-11-30T08:39:45.346Z,4.74
2022-11-30T08:40:47.558Z,4.74
2022-11-30T08:41:52.211Z,4.76
2022-11-30T08:42:55.418Z,4.77
2022-11-30T08:43:57.847Z,4.77
2022-11-30T08:45:01.278Z,4.78
2022-11-30T08:46:27.560Z,4.80
2022-11-30T08:47:30.160Z,4.79
2022-11-30T08:48:33.428Z,4.81
2022-11-30T08:49:36.589Z,4.81
2022-11-30T08:50:38.770Z,4.80
2022-11-30T08:52:15.384Z,4.81
2022-11-30T08:53:06.585Z,4.84
2022-11-30T08:54:08.811Z,4.84
2022-11-30T08:55:12.017Z,4.85
2022-11-30T08:56:16.928Z,4.85
2022-11-30T08:57:21.628Z,4.87
2022-11-30T08:58:23.871Z,4.88
2022-11-30T08:59:27.277Z,4.89
2022-11-30T09:00:30.585Z,4.89
2022-11-30T09:01:34.148Z,4.88
2022-11-30T09:02:38.415Z,4.89
2022-11-30T09:03:42.896Z,4.90
2022-11-30T09:04:45.530Z,4.90
2022-11-30T09:05:48.741Z,4.90
2022-11-30T09:06:50.913Z,4.88
2022-11-30T09:07:54.195Z,4.91
2022-11-30T09:08:59.084Z,4.91
2022-11-30T09:10:02.368Z,4.90
2022-11-30T09:11:12.390Z,4.88
2022-11-30T09:12:15.721Z,4.90
2022-11-30T09:13:19.245Z,4.91
2022-11-30T09:14:22.501Z,4.92
2022-11-30T09:15:25.739Z,4.93
2022-11-30T09:16:29.539Z,4.94
2022-11-30T09:17:34.289Z,4.95
2022-11-30T09:18:37.669Z,4.95
2022-11-30T09:19:40.921Z,4.96
2022-11-30T09:20:44.069Z,4.95
2022-11-30T09:21:51.975Z,4.96
2022-11-30T09:22:55.755Z,4.97
2022-11-30T09:23:58.160Z,4.97
2022-11-30T09:25:01.378Z,4.98
2022-11-30T09:26:07.163Z,4.99
2022-11-30T09:27:10.713Z,5.00
2022-11-30T09:28:13.986Z,5.01
2022-11-30T09:29:17.343Z,5.01
2022-11-30T09:30:20.641Z,5.02
2022-11-30T09:31:24.247Z,5.04
2022-11-30T09:32:27.609Z,5.07
2022-11-30T09:33:32.452Z,5.09
2022-11-30T09:34:35.845Z,5.06
2022-11-30T09:35:38.013Z,5.10
2022-11-30T09:36:41.355Z,5.11
2022-11-30T09:37:43.478Z,5.10
2022-11-30T09:38:47.141Z,5.10
2022-11-30T09:39:50.345Z,5.10
2022-11-30T09:40:56.878Z,5.12
2022-11-30T09:42:23.037Z,5.13
2022-11-30T09:43:37.272Z,5.14
2022-11-30T09:44:50.595Z,5.16
2022-11-30T09:45:58.124Z,5.18
2022-11-30T09:47:08.456Z,5.20
2022-11-30T09:48:26.111Z,5.20
2022-11-30T09:49:33.734Z,5.22
2022-11-30T09:50:43.147Z,5.21
2022-11-30T09:51:47.759Z,5.20
2022-11-30T09:52:54.888Z,5.22
2022-11-30T09:54:01.855Z,5.24
2022-11-30T09:55:10.303Z,5.25
2022-11-30T09:56:22.736Z,5.26
2022-11-30T09:57:29.075Z,5.29
2022-11-30T09:58:40.987Z,5.30
2022-11-30T09:59:48.736Z,5.31
2022-11-30T10:00:52.014Z,5.33
2022-11-30T10:01:57.146Z,5.34
2022-11-30T10:03:05.069Z,5.35
2022-11-30T10:04:21.335Z,5.37
2022-11-30T10:05:30.018Z,5.39
2022-11-30T10:06:42.793Z,5.40
2022-11-30T10:08:08.250Z,5.41
2022-11-30T10:09:27.380Z,5.42
2022-11-30T10:10:38.107Z,5.43
2022-11-30T10:11:48.785Z,5.43
2022-11-30T10:13:00.941Z,5.44
2022-11-30T10:14:19.248Z,5.44
2022-11-30T10:15:32.270Z,5.42
2022-11-30T10:16:41.932Z,5.42
2022-11-30T10:17:54.747Z,5.40
2022-11-30T10:19:05.559Z,5.38
2022-11-30T10:20:37.557Z,5.37
2022-11-30T10:21:54.279Z,5.37
2022-11-30T10:23:09.588Z,5.36
2022-11-30T10:24:30.766Z,5.36
2022-11-30T10:25:42.805Z,5.38
2022-11-30T10:26:54.722Z,5.39
2022-11-30T10:28:24.366Z,5.39
2022-11-30T10:29:35.332Z,5.39
2022-11-30T10:30:38.637Z,5.40
2022-11-30T10:31:42.964Z,5.42
2022-11-30T10:32:50.374Z,5.41
2022-11-30T10:33:55.440Z,5.43
2022-11-30T10:35:04.727Z,5.46
2022-11-30T10:36:14.201Z,5.48
2022-11-30T10:37:20.899Z,5.49
2022-11-30T10:38:29.067Z,5.50
2022-11-30T10:39:36.929Z,5.51
2022-11-30T10:40:45.628Z,5.51
2022-11-30T10:41:52.788Z,5.51
2022-11-30T10:43:07.132Z,5.53
2022-11-30T10:44:16.148Z,5.52
2022-11-30T10:45:23.035Z,5.52
2022-11-30T10:46:32.274Z,5.54
2022-11-30T10:47:37.277Z,5.53
2022-11-30T10:48:44.488Z,5.53
2022-11-30T10:49:50.847Z,5.53
2022-11-30T10:50:53.712Z,5.51
2022-11-30T10:52:03.093Z,5.50
2022-11-30T10:53:06.473Z,5.49
2022-11-30T10:54:16.354Z,5.49
2022-11-30T10:55:22.481Z,5.49
2022-11-30T10:56:27.078Z,5.49
2022-11-30T10:57:32.814Z,5.50
2022-11-30T10:58:40.777Z,5.50
2022-11-30T10:59:47.139Z,5.50
2022-11-30T11:00:57.242Z,5.49
2022-11-30T11:02:01.199Z,5.49
2022-11-30T11:03:04.498Z,5.49
2022-11-30T11:04:15.544Z,5.47
2022-11-30T11:05:23.977Z,5.47
2022-11-30T11:06:26.809Z,5.48
2022-11-30T11:07:33.154Z,5.49
2022-11-30T11:08:36.537Z,5.48
2022-11-30T11:09:41.243Z,5.49
2022-11-30T11:10:46.630Z,5.49
2022-11-30T11:11:54.181Z,5.50
2022-11-30T11:12:57.567Z,5.50
2022-11-30T11:14:19.398Z,5.49
2022-11-30T11:15:24.519Z,5.49
2022-11-30T11:16:26.698Z,5.49
2022-11-30T11:17:33.101Z,5.48
2022-11-30T11:18:36.861Z,5.47
2022-11-30T11:19:41.980Z,5.46
2022-11-30T11:20:45.027Z,5.45
2022-11-30T11:21:51.382Z,5.45
2022-11-30T11:22:56.040Z,5.43
2022-11-30T11:23:59.798Z,5.41
2022-11-30T11:25:20.617Z,5.38
2022-11-30T11:26:25.611Z,5.36
2022-11-30T11:27:30.878Z,5.35
2022-11-30T11:28:36.515Z,5.33
2022-11-30T11:29:39.924Z,5.33
2022-11-30T11:30:42.257Z,5.34
2022-11-30T11:31:47.391Z,5.35
2022-11-30T11:33:00.050Z,5.36
2022-11-30T11:34:03.773Z,5.37
2022-11-30T11:35:34.309Z,5.39
2022-11-30T11:36:37.812Z,5.41
2022-11-30T11:37:41.627Z,5.42
2022-11-30T11:38:47.364Z,5.42
2022-11-30T11:40:02.164Z,5.42
2022-11-30T11:41:08.356Z,5.42
2022-11-30T11:42:20.641Z,5.41
2022-11-30T11:43:26.888Z,5.41
2022-11-30T11:44:30.223Z,5.41
2022-11-30T11:45:39.430Z,5.40
2022-11-30T11:46:55.485Z,5.40
2022-11-30T11:48:00.949Z,5.39
2022-11-30T11:49:06.447Z,5.38
2022-11-30T11:50:50.384Z,5.37
2022-11-30T11:51:48.679Z,5.37
2022-11-30T11:53:06.194Z,5.36
2022-11-30T11:54:23.084Z,5.35
2022-11-30T11:55:25.342Z,5.35
2022-11-30T11:56:32.550Z,5.35
2022-11-30T11:57:44.662Z,5.36
2022-11-30T11:58:52.350Z,5.37
2022-11-30T11:59:59.828Z,5.37
2022-11-30T12:01:37.866Z,5.36
2022-11-30T12:02:38.145Z,5.35
2022-11-30T12:03:56.579Z,5.33
2022-11-30T12:05:04.167Z,5.35
2022-11-30T12:06:12.988Z,5.35
2022-11-30T12:07:25.200Z,5.36
2022-11-30T12:08:36.352Z,5.38
2022-11-30T12:09:51.208Z,5.39
2022-11-30T12:10:58.321Z,5.40
2022-11-30T12:12:01.707Z,5.41
2022-11-30T12:13:12.014Z,5.41
2022-11-30T12:14:17.413Z,5.41
2022-11-30T12:15:23.054Z,5.41
2022-11-30T12:16:38.242Z,5.42
2022-11-30T12:17:50.767Z,5.40
2022-11-30T12:19:00.133Z,5.39
2022-11-30T12:20:14.181Z,5.40
2022-11-30T12:21:26.960Z,5.37
2022-11-30T12:22:48.126Z,5.36
2022-11-30T12:24:04.915Z,5.35
2022-11-30T12:25:26.520Z,5.33
2022-11-30T12:26:38.370Z,5.32
2022-11-30T12:27:53.516Z,5.33
2022-11-30T12:29:20.583Z,5.30
2022-11-30T12:30:30.266Z,5.29
2022-11-30T12:31:42.506Z,5.27
2022-11-30T12:33:11.227Z,5.25
2022-11-30T12:34:24.188Z,5.23
2022-11-30T12:35:38.256Z,5.20
2022-11-30T12:36:55.022Z,5.20
2022-11-30T12:38:09.050Z,5.19
2022-11-30T12:39:26.115Z,5.18
2022-11-30T12:40:43.615Z,5.19
2022-11-30T12:41:52.499Z,5.20
2022-11-30T12:43:02.817Z,5.20
2022-11-30T12:44:28.574Z,5.22
2022-11-30T12:45:38.526Z,5.20
2022-11-30T12:46:49.736Z,5.23
2022-11-30T12:48:02.966Z,5.22
2022-11-30T12:49:23.301Z,5.23
2022-11-30T12:50:38.649Z,5.24
2022-11-30T12:51:49.901Z,5.25
2022-11-30T12:53:02.352Z,5.25
2022-11-30T12:54:15.371Z,5.27
2022-11-30T12:55:28.991Z,5.27
2022-11-30T12:56:45.854Z,5.28
2022-11-30T12:57:59.280Z,5.24
2022-11-30T12:59:13.616Z,5.29
2022-11-30T13:00:21.707Z,5.26
2022-11-30T13:01:44.265Z,5.28
2022-11-30T13:03:23.307Z,5.27
2022-11-30T13:04:39.295Z,5.25
2022-11-30T13:05:46.329Z,5.25
2022-11-30T13:06:54.880Z,5.25
2022-11-30T13:08:05.046Z,5.24
2022-11-30T13:09:17.351Z,5.23
2022-11-30T13:10:28.840Z,5.22
2022-11-30T13:11:38.893Z,5.23
2022-11-30T13:12:46.001Z,5.21
2022-11-30T13:13:52.521Z,5.20
2022-11-30T13:15:01.361Z,5.18
2022-11-30T13:16:06.925Z,5.16
2022-11-30T13:17:20.537Z,5.13
2022-11-30T13:18:25.085Z,5.12
2022-11-30T13:19:46.013Z,5.10
2022-11-30T13:20:56.208Z,5.09
2022-11-30T13:22:09.004Z,5.08
2022-11-30T13:23:19.672Z,5.09
2022-11-30T13:24:29.029Z,5.08
2022-11-30T13:26:06.988Z,5.09
2022-11-30T13:27:07.510Z,5.08
2022-11-30T13:28:21.382Z,5.06
2022-11-30T13:29:47.312Z,5.05
2022-11-30T13:30:56.770Z,5.03
2022-11-30T13:32:22.221Z,5.01
2022-11-30T13:33:57.860Z,4.99
2022-11-30T13:35:34.040Z,4.98
2022-11-30T13:36:39.737Z,4.97
2022-11-30T13:37:42.886Z,4.96
2022-11-30T13:38:45.057Z,4.96
2022-11-30T13:39:50.776Z,4.93
2022-11-30T13:40:57.969Z,4.92
2022-11-30T13:42:34.294Z,4.92
2022-11-30T13:43:41.801Z,4.91
2022-11-30T13:44:45.626Z,4.90
2022-11-30T13:45:48.293Z,4.90
2022-11-30T13:46:53.334Z,4.91
2022-11-30T13:47:58.167Z,4.90
2022-11-30T13:49:22.448Z,4.91
2022-11-30T13:50:33.063Z,4.89
2022-11-30T13:51:38.334Z,4.91
2022-11-30T13:53:25.686Z,4.91
2022-11-30T13:54:40.658Z,4.93
2022-11-30T13:55:56.952Z,4.92
2022-11-30T13:57:00.221Z,4.92
2022-11-30T13:58:11.943Z,4.92
2022-11-30T13:59:36.168Z,4.91
2022-11-30T14:01:02.211Z,4.90
2022-11-30T14:02:44.439Z,4.89
2022-11-30T14:04:30.574Z,4.90
2022-11-30T14:05:41.467Z,4.90
2022-11-30T14:06:50.839Z,4.89
2022-11-30T14:08:31.842Z,4.90
2022-11-30T14:09:59.909Z,4.90
2022-11-30T14:11:40.257Z,4.90
2022-11-30T14:13:02.349Z,4.91
2022-11-30T14:14:45.734Z,4.90
2022-11-30T14:15:56.483Z,4.90
2022-11-30T14:17:00.268Z,4.90
2022-11-30T14:18:06.403Z,4.90
2022-11-30T14:19:12.000Z,4.90
2022-11-30T14:20:17.855Z,4.90
2022-11-30T14:21:28.057Z,4.91
2022-11-30T14:22:32.456Z,4.90
2022-11-30T14:23:48.250Z,4.91
2022-11-30T14:24:51.872Z,4.92
2022-11-30T14:25:58.867Z,4.88
2022-11-30T14:27:04.649Z,4.89
2022-11-30T14:28:09.495Z,4.89
2022-11-30T14:29:18.795Z,4.87
2022-11-30T14:30:22.952Z,4.86
2022-11-30T14:31:31.657Z,4.86
2022-11-30T14:32:39.164Z,4.84
2022-11-30T14:33:48.384Z,4.83
2022-11-30T14:34:55.825Z,4.81
2022-11-30T14:36:01.107Z,4.81
2022-11-30T14:37:14.635Z,4.79
2022-11-30T14:38:24.870Z,4.78
2022-11-30T14:39:33.777Z,4.76
2022-11-30T14:40:37.064Z,4.77
2022-11-30T14:41:41.594Z,4.76
2022-11-30T14:42:49.850Z,4.75
2022-11-30T14:44:07.797Z,4.76
2022-11-30T14:45:18.560Z,4.76
2022-11-30T14:46:21.709Z,4.75
2022-11-30T14:47:28.494Z,4.76